Time;durP1;ratioP1;P1;durP2;ratioP2;P2;SDS_P1;SDS_P2;PMS_P1;PMS_P2;Temp;Humidity;BMP_temperature;BMP_pressure;BME280_temperature;BME280_humidity;BME280_pressure;Samples;Min_cycle;Max_cycle;Signal;HPM_P1;HPM_P2
2022/08/29 00:02:25;;;;;;;2.15;1.15;;;;;;;17.85;31.00;101692.25;5066992;28;20064;-79
2022/08/29 00:04:54;;;;;;;2.70;1.08;;;;;;;17.83;31.04;101695.16;5074269;28;20052;-77
2022/08/29 00:07:22;;;;;;;3.53;1.25;;;;;;;17.82;31.10;101693.44;5080686;28;20646;-78
2022/08/29 00:09:50;;;;;;;3.38;1.35;;;;;;;17.82;31.17;101690.66;5077409;28;20055;-78
2022/08/29 00:12:18;;;;;;;3.03;1.10;;;;;;;17.80;30.74;101689.97;5073578;28;20136;-78
2022/08/29 00:14:47;;;;;;;2.45;1.23;;;;;;;17.81;30.80;101696.38;5074469;28;20056;-79
2022/08/29 00:17:15;;;;;;;3.15;1.23;;;;;;;17.77;30.99;101685.63;5071088;28;20033;-78
2022/08/29 00:19:43;;;;;;;2.85;1.15;;;;;;;17.76;31.01;101683.00;5087763;28;20072;-78
2022/08/29 00:22:11;;;;;;;3.85;1.15;;;;;;;17.74;30.79;101687.84;5084838;28;20036;-78
2022/08/29 00:24:39;;;;;;;3.17;1.10;;;;;;;17.74;30.77;101676.75;5093382;28;20458;-78
2022/08/29 00:27:07;;;;;;;2.55;1.13;;;;;;;17.72;30.89;101684.34;5078312;28;20093;-78
2022/08/29 00:29:35;;;;;;;2.58;1.20;;;;;;;17.69;31.36;101685.53;5090032;28;20488;-79
2022/08/29 00:32:04;;;;;;;3.45;1.17;;;;;;;17.71;31.36;101682.59;5071923;28;20068;-79
2022/08/29 00:34:33;;;;;;;3.22;1.17;;;;;;;17.68;31.15;101685.69;5074816;28;20048;-79
2022/08/29 00:37:01;;;;;;;2.72;1.20;;;;;;;17.67;31.60;101681.16;5065342;28;20044;-79
2022/08/29 00:39:30;;;;;;;2.72;1.30;;;;;;;17.67;31.57;101684.81;5070421;28;20048;-78
2022/08/29 00:41:59;;;;;;;2.45;1.10;;;;;;;17.64;31.58;101679.63;5082684;28;20037;-78
2022/08/29 00:44:28;;;;;;;2.85;1.20;;;;;;;17.63;31.25;101677.88;5074099;28;20130;-79
2022/08/29 00:46:58;;;;;;;2.30;1.02;;;;;;;17.63;31.30;101686.19;5077409;28;20513;-79
2022/08/29 00:49:34;;;;;;;3.47;1.33;;;;;;;17.64;31.31;101693.47;5064363;28;20044;-79
2022/08/29 00:52:08;;;;;;;3.08;1.13;;;;;;;17.60;31.60;101692.03;5067138;28;20048;-79
2022/08/29 00:54:38;;;;;;;2.00;1.10;;;;;;;17.57;31.09;101688.69;5062186;28;20051;-78
2022/08/29 00:57:06;;;;;;;2.67;1.20;;;;;;;17.57;31.62;101691.47;5063693;28;20048;-79
2022/08/29 00:59:38;;;;;;;2.15;1.20;;;;;;;17.56;31.32;101689.75;5068865;28;20047;-79
2022/08/29 01:02:09;;;;;;;3.00;1.07;;;;;;;17.52;31.92;101688.31;5069337;28;20043;-78
2022/08/29 01:04:39;;;;;;;2.20;1.13;;;;;;;17.52;31.80;101688.31;5071153;28;20075;-79
2022/08/29 01:07:09;;;;;;;2.65;1.30;;;;;;;17.50;31.77;101685.69;5072656;28;20382;-79
2022/08/29 01:09:39;;;;;;;3.60;1.20;;;;;;;17.47;31.53;101683.28;5056152;28;20134;-79
2022/08/29 01:12:15;;;;;;;3.55;1.35;;;;;;;17.44;31.58;101688.25;5071401;28;20044;-78
2022/08/29 01:14:48;;;;;;;3.13;1.30;;;;;;;17.43;31.85;101692.91;5072603;28;20046;-79
2022/08/29 01:17:24;;;;;;;2.72;1.17;;;;;;;17.39;32.19;101692.38;5085565;28;20051;-79
2022/08/29 01:19:57;;;;;;;3.50;1.30;;;;;;;17.37;32.27;101688.00;5068947;28;20044;-79
2022/08/29 01:22:41;;;;;;;3.40;1.35;;;;;;;17.36;32.62;101700.09;5079696;28;20480;-79
2022/08/29 01:25:15;;;;;;;2.55;1.10;;;;;;;17.32;31.97;101701.44;5072982;28;20036;-79
2022/08/29 01:27:46;;;;;;;2.35;1.00;;;;;;;17.30;31.80;101706.28;5072029;28;20454;-79
2022/08/29 01:30:15;;;;;;;2.03;1.10;;;;;;;17.24;32.37;101704.13;5067183;28;20479;-79
2022/08/29 01:32:43;;;;;;;3.38;1.20;;;;;;;17.24;32.38;101705.00;5073047;28;20557;-79
2022/08/29 01:35:11;;;;;;;2.47;1.15;;;;;;;17.22;32.05;101706.19;5069876;28;20051;-79
2022/08/29 01:37:42;;;;;;;2.15;1.10;;;;;;;17.21;32.20;101713.63;5072439;28;20068;-79
2022/08/29 01:40:13;;;;;;;2.33;1.10;;;;;;;17.20;32.61;101716.53;5071373;28;20152;-79
2022/08/29 01:42:41;;;;;;;2.22;1.15;;;;;;;17.14;32.60;101715.28;5060032;28;20060;-80
2022/08/29 01:45:10;;;;;;;2.45;1.20;;;;;;;17.14;32.53;101720.81;5063045;28;20090;-80
2022/08/29 01:47:38;;;;;;;3.25;1.30;;;;;;;17.12;32.08;101711.81;5062247;28;20069;-79
2022/08/29 01:50:09;;;;;;;2.30;1.40;;;;;;;17.11;32.13;101721.13;5068262;28;20102;-79
2022/08/29 01:52:38;;;;;;;4.07;1.30;;;;;;;17.08;32.65;101715.88;5082907;28;20044;-79
2022/08/29 01:55:06;;;;;;;2.80;1.40;;;;;;;17.05;32.63;101715.34;5071243;28;20560;-79
2022/08/29 01:57:38;;;;;;;2.90;1.40;;;;;;;17.06;32.81;101717.09;5071826;28;20464;-79
2022/08/29 02:00:09;;;;;;;3.88;1.38;;;;;;;17.00;32.78;101713.03;5068714;28;20045;-80
2022/08/29 02:02:42;;;;;;;2.25;1.13;;;;;;;17.01;33.00;101715.66;5068776;28;20037;-79
2022/08/29 02:05:10;;;;;;;2.75;1.23;;;;;;;16.95;32.92;101719.00;5071148;28;20368;-80
2022/08/29 02:07:38;;;;;;;2.95;1.38;;;;;;;16.96;32.96;101717.13;5069275;28;20147;-79
2022/08/29 02:10:07;;;;;;;3.70;1.38;;;;;;;16.96;32.90;101722.66;5070003;28;20044;-79
2022/08/29 02:12:37;;;;;;;1.73;1.02;;;;;;;16.93;32.96;101722.94;5069956;28;20037;-79
2022/08/29 02:15:06;;;;;;;2.63;1.30;;;;;;;16.93;32.77;101720.19;5070239;28;20044;-79
2022/08/29 02:17:34;;;;;;;1.80;1.08;;;;;;;16.89;32.93;101725.19;5070239;28;20452;-79
2022/08/29 02:20:04;;;;;;;2.47;1.20;;;;;;;16.88;32.85;101728.97;5066260;28;20055;-79
2022/08/29 02:22:35;;;;;;;2.57;0.90;;;;;;;16.84;32.81;101730.28;5084307;28;20041;-79
2022/08/29 02:27:53;;;;;;;2.47;1.10;;;;;;;16.84;33.18;101730.28;5061103;28;20048;-78
2022/08/29 02:30:22;;;;;;;2.13;1.20;;;;;;;16.82;32.99;101728.72;5071074;28;20063;-79
2022/08/29 02:32:50;;;;;;;3.15;1.20;;;;;;;16.79;33.08;101726.25;5066221;28;20040;-80
2022/08/29 02:35:18;;;;;;;2.95;1.33;;;;;;;16.78;32.88;101730.03;5068439;28;20139;-79
2022/08/29 02:37:47;;;;;;;2.45;1.13;;;;;;;16.77;33.56;101731.91;5068540;28;20048;-79
2022/08/29 02:40:16;;;;;;;3.17;1.30;;;;;;;16.76;33.04;101740.34;5065336;28;20116;-80
2022/08/29 02:42:45;;;;;;;3.28;1.20;;;;;;;16.73;33.54;101735.16;5072515;28;20040;-79
2022/08/29 02:45:16;;;;;;;2.65;1.30;;;;;;;16.72;33.32;101736.19;5073535;28;20432;-79
2022/08/29 02:47:44;;;;;;;2.55;1.10;;;;;;;16.70;33.17;101743.75;5072150;28;20051;-79
2022/08/29 02:50:12;;;;;;;3.70;1.23;;;;;;;16.68;33.57;101735.59;5067491;28;20759;-79
2022/08/29 02:52:41;;;;;;;2.97;1.23;;;;;;;16.66;33.22;101739.56;5068793;28;20029;-79
2022/08/29 02:55:59;;;;;;;3.05;1.23;;;;;;;16.62;34.14;101738.97;5078456;28;21004;-79
2022/08/29 02:58:27;;;;;;;2.22;1.23;;;;;;;16.58;33.92;101738.41;5062196;28;20047;-79
2022/08/29 03:00:58;;;;;;;3.63;1.70;;;;;;;16.60;34.10;101732.72;5066982;28;20064;-80
2022/08/29 03:03:27;;;;;;;3.58;1.50;;;;;;;16.55;34.10;101733.19;5069956;28;20036;-79
2022/08/29 03:05:55;;;;;;;3.10;1.52;;;;;;;16.54;33.68;101731.47;5063238;28;20071;-80
2022/08/29 03:08:23;;;;;;;3.75;1.42;;;;;;;16.52;34.13;101729.88;5066887;28;20044;-80
2022/08/29 03:10:51;;;;;;;2.35;1.15;;;;;;;16.49;34.07;101721.91;5067449;28;20037;-80
2022/08/29 03:13:19;;;;;;;2.42;1.23;;;;;;;16.47;34.17;101724.81;5058225;28;20502;-80
2022/08/29 03:16:14;;;;;;;5.18;1.50;;;;;;;16.40;34.79;101726.44;5068949;28;20095;-80
2022/08/29 03:18:42;;;;;;;4.68;1.35;;;;;;;16.37;33.99;101715.69;5060026;28;20653;-80
2022/08/29 03:21:15;;;;;;;3.78;1.23;;;;;;;16.39;34.72;101713.66;5067823;28;20139;-80
2022/08/29 03:23:44;;;;;;;2.53;1.38;;;;;;;16.35;34.18;101716.84;5066794;28;20083;-80
2022/08/29 03:26:12;;;;;;;3.75;1.63;;;;;;;16.33;34.51;101711.47;5068901;28;20051;-80
2022/08/29 03:28:40;;;;;;;4.15;1.65;;;;;;;16.32;34.07;101717.16;5064744;28;20392;-79
2022/08/29 03:31:08;;;;;;;2.13;1.25;;;;;;;16.31;34.31;101729.22;5073256;28;20116;-80
2022/08/29 03:33:37;;;;;;;3.60;1.52;;;;;;;16.31;34.16;101718.19;5067603;28;20044;-80
2022/08/29 03:36:08;;;;;;;3.22;1.40;;;;;;;16.29;34.66;101711.94;5069397;28;20045;-80
2022/08/29 03:38:42;;;;;;;3.00;1.30;;;;;;;16.26;34.43;101707.56;5068059;28;20041;-80
2022/08/29 03:41:10;;;;;;;2.50;1.30;;;;;;;16.24;34.42;101709.63;5071091;28;20417;-79
2022/08/29 03:43:38;;;;;;;4.07;1.40;;;;;;;16.23;34.48;101702.38;5060952;28;20110;-80
2022/08/29 03:46:31;;;;;;;2.95;1.50;;;;;;;16.18;35.25;101702.81;5083993;28;20040;-80
2022/08/29 03:49:01;;;;;;;2.17;1.20;;;;;;;16.18;35.07;101700.03;5065630;28;20053;-79
2022/08/29 03:51:30;;;;;;;2.15;1.30;;;;;;;16.14;34.84;101704.09;5069617;28;20044;-80
2022/08/29 03:53:58;;;;;;;3.25;1.50;;;;;;;16.12;35.28;101699.75;5060056;28;20127;-80
2022/08/29 03:56:27;;;;;;;3.08;1.40;;;;;;;16.10;35.38;101704.53;5067237;28;20139;-80
2022/08/29 03:58:57;;;;;;;3.55;1.60;;;;;;;16.05;35.00;101696.72;5066035;28;20049;-80
2022/08/29 04:01:27;;;;;;;4.05;1.75;;;;;;;16.03;35.39;101692.34;5065807;28;20496;-79
2022/08/29 04:03:57;;;;;;;2.80;1.35;;;;;;;16.00;35.49;101689.91;5067003;28;20048;-80
2022/08/29 04:06:28;;;;;;;3.88;1.65;;;;;;;15.97;35.73;101687.44;5068027;28;20519;-79
2022/08/29 04:08:57;;;;;;;2.70;1.40;;;;;;;15.93;35.72;101692.38;5079742;28;20036;-79
2022/08/29 04:11:27;;;;;;;3.33;1.50;;;;;;;15.91;35.28;101685.28;5068178;28;20036;-79
2022/08/29 04:13:55;;;;;;;2.92;1.40;;;;;;;15.87;35.26;101687.47;5072475;28;20040;-80
2022/08/29 04:16:25;;;;;;;3.83;1.63;;;;;;;15.84;35.44;101685.84;5063131;28;20044;-79
2022/08/29 04:18:58;;;;;;;3.50;1.30;;;;;;;15.80;35.72;101689.94;5080148;28;20387;-80
2022/08/29 04:21:28;;;;;;;3.28;1.50;;;;;;;15.80;35.90;101698.22;5068180;28;20040;-79
2022/08/29 04:23:56;;;;;;;3.88;1.50;;;;;;;15.75;35.55;101683.16;5066573;28;20040;-80
2022/08/29 04:26:24;;;;;;;3.45;1.40;;;;;;;15.72;35.74;101683.44;5070323;28;20064;-80
2022/08/29 04:29:09;;;;;;;3.38;1.55;;;;;;;15.70;35.81;101689.09;5065896;28;20237;-80
2022/08/29 04:31:38;;;;;;;3.20;1.48;;;;;;;15.69;35.75;101692.88;5063294;28;20071;-80
2022/08/29 04:34:08;;;;;;;3.50;1.58;;;;;;;15.68;35.65;101699.41;5062426;28;20099;-80
2022/08/29 04:36:40;;;;;;;3.67;1.50;;;;;;;15.68;36.27;101706.81;5069968;28;20033;-81
2022/08/29 04:39:09;;;;;;;3.95;1.40;;;;;;;15.66;36.03;101703.34;5061764;28;20140;-79
2022/08/29 04:41:38;;;;;;;3.72;1.50;;;;;;;15.65;36.05;101708.00;5092335;28;20044;-79
2022/08/29 04:44:08;;;;;;;3.63;1.40;;;;;;;15.63;36.33;101698.09;5069683;28;20054;-80
2022/08/29 04:46:36;;;;;;;2.95;1.35;;;;;;;15.63;36.02;101707.25;5071406;28;20109;-80
2022/08/29 04:49:04;;;;;;;4.20;1.80;;;;;;;15.62;36.24;101708.28;5076903;28;20051;-80
2022/08/29 04:51:34;;;;;;;2.70;1.30;;;;;;;15.62;36.61;101708.28;5071113;28;20052;-80
2022/08/29 04:54:05;;;;;;;3.15;1.52;;;;;;;15.63;36.39;101718.31;5070237;28;20052;-80
2022/08/29 04:56:34;;;;;;;4.03;1.67;;;;;;;15.61;36.68;101722.22;5074082;28;20037;-81
2022/08/29 04:59:04;;;;;;;3.42;1.60;;;;;;;15.59;36.69;101719.59;5061261;28;20061;-80
2022/08/29 05:01:33;;;;;;;3.55;1.50;;;;;;;15.61;36.40;101714.81;5072513;28;20134;-80
2022/08/29 05:04:02;;;;;;;3.30;1.80;;;;;;;15.57;36.89;101716.13;5063781;28;20403;-80
2022/08/29 05:06:30;;;;;;;2.72;1.60;;;;;;;15.57;36.38;101713.38;5080723;28;20482;-80
2022/08/29 05:08:58;;;;;;;3.25;1.83;;;;;;;15.57;36.80;101718.03;5083195;28;20060;-79
2022/08/29 05:11:31;;;;;;;3.90;1.65;;;;;;;15.59;36.93;101725.13;5074100;28;20036;-80
2022/08/29 05:13:59;;;;;;;2.63;1.50;;;;;;;15.57;37.08;101720.78;5070805;28;20122;-80
2022/08/29 05:16:29;;;;;;;2.38;1.33;;;;;;;15.58;36.82;101728.03;5074231;28;20044;-80
2022/08/29 05:18:59;;;;;;;2.28;1.20;;;;;;;15.58;36.80;101728.91;5073990;28;20140;-81
2022/08/29 05:21:30;;;;;;;3.30;1.55;;;;;;;15.60;37.18;101731.50;5074178;28;20202;-82
2022/08/29 05:24:04;;;;;;;3.97;1.88;;;;;;;15.61;36.98;101731.38;5072809;28;20433;-83
2022/08/29 05:26:36;;;;;;;3.38;1.42;;;;;;;15.63;37.49;101734.84;5075141;28;20043;-80
2022/08/29 05:29:06;;;;;;;3.33;1.50;;;;;;;15.61;36.90;101728.59;5060764;28;20052;-81
2022/08/29 05:31:37;;;;;;;2.85;1.60;;;;;;;15.65;37.02;101729.19;5073890;28;20044;-79
2022/08/29 05:34:05;;;;;;;3.03;1.45;;;;;;;15.66;36.94;101729.06;5073102;28;20560;-81
2022/08/29 05:36:53;;;;;;;4.20;1.70;;;;;;;15.66;37.38;101730.94;5057912;28;20049;-81
2022/08/29 05:39:21;;;;;;;3.88;1.92;;;;;;;15.69;37.39;101728.75;5066685;28;20047;-81
2022/08/29 05:41:54;;;;;;;4.28;1.85;;;;;;;15.72;37.57;101733.97;5068450;28;20044;-81
2022/08/29 05:44:22;;;;;;;4.15;1.75;;;;;;;15.70;37.53;101729.63;5064254;28;20070;-81
2022/08/29 05:46:51;;;;;;;5.47;1.90;;;;;;;15.70;37.38;101730.50;5065195;28;20056;-81
2022/08/29 05:49:19;;;;;;;4.07;1.75;;;;;;;15.72;37.04;101744.16;5060740;28;20120;-81
2022/08/29 05:51:48;;;;;;;5.10;2.00;;;;;;;15.73;37.48;101746.75;5068760;28;20090;-81
2022/08/29 05:54:16;;;;;;;3.45;1.90;;;;;;;15.73;37.20;101746.75;5066975;28;20089;-82
2022/08/29 05:56:44;;;;;;;3.15;1.48;;;;;;;15.73;37.32;101743.13;5070562;28;20036;-81
2022/08/29 05:59:16;;;;;;;4.30;1.65;;;;;;;15.77;37.37;101750.09;5065593;28;20044;-80
2022/08/29 06:01:46;;;;;;;3.83;2.00;;;;;;;15.77;37.29;101761.13;5070767;28;20725;-80
2022/08/29 06:04:14;;;;;;;4.10;1.90;;;;;;;15.77;37.23;101764.75;5067195;28;20502;-81
2022/08/29 06:06:42;;;;;;;4.25;1.90;;;;;;;15.79;37.33;101764.63;5063213;28;20045;-83
2022/08/29 06:09:11;;;;;;;3.50;1.77;;;;;;;15.82;37.31;101770.72;5069180;28;20095;-82
2022/08/29 06:11:39;;;;;;;3.47;1.80;;;;;;;15.83;37.87;101778.00;5059347;28;20584;-81
2022/08/29 06:14:07;;;;;;;4.35;1.80;;;;;;;15.87;37.88;101775.78;5064693;28;20053;-83
2022/08/29 06:16:37;;;;;;;3.47;1.77;;;;;;;15.93;37.70;101774.31;5067286;28;20044;-81
2022/08/29 06:19:05;;;;;;;6.38;2.03;;;;;;;15.93;37.40;101772.44;5067551;28;20139;-82
2022/08/29 06:21:35;;;;;;;4.45;2.00;;;;;;;15.98;37.69;101767.38;5072118;28;20074;-81
2022/08/29 06:24:04;;;;;;;6.10;2.38;;;;;;;16.00;37.57;101768.06;5070375;28;20483;-82
2022/08/29 06:26:33;;;;;;;4.60;1.90;;;;;;;16.03;37.48;101769.66;5068846;28;20029;-81
2022/08/29 06:29:04;;;;;;;4.32;1.88;;;;;;;16.05;37.94;101770.41;5069181;28;20124;-82
2022/08/29 06:31:33;;;;;;;3.90;2.13;;;;;;;16.05;37.73;101767.63;5070573;28;20098;-83
2022/08/29 06:34:05;;;;;;;4.35;1.80;;;;;;;16.10;37.65;101779.97;5070952;28;20462;-81
2022/08/29 06:36:45;;;;;;;5.35;2.40;;;;;;;16.11;38.10;101778.97;5069681;28;20402;-82
2022/08/29 06:39:15;;;;;;;6.47;2.17;;;;;;;16.07;37.93;101776.66;5067606;28;20045;-82
2022/08/29 06:41:44;;;;;;;7.05;2.80;;;;;;;16.10;37.73;101777.22;5069576;28;20036;-83
2022/08/29 06:44:14;;;;;;;4.97;2.20;;;;;;;16.11;37.68;101778.97;5068758;28;20391;-82
2022/08/29 06:46:45;;;;;;;5.85;2.50;;;;;;;16.13;37.74;101778.81;5058178;28;20088;-82
2022/08/29 06:49:17;;;;;;;4.77;2.53;;;;;;;16.15;38.06;101785.06;5070141;28;20128;-82
2022/08/29 06:51:50;;;;;;;;;;;;;;;15.88;38.24;101786.69;5071954;28;20353;-83
2022/08/29 06:54:27;;;;;;;5.40;2.13;;;;;;;16.15;38.08;101790.59;5071129;28;19920;-81
2022/08/29 06:56:56;;;;;;;5.00;2.25;;;;;;;16.21;37.84;101790.03;5065560;28;20103;-83
2022/08/29 06:59:24;;;;;;;5.65;2.10;;;;;;;16.28;37.87;101777.34;5067529;28;20040;-83
2022/08/29 07:01:53;;;;;;;5.25;2.28;;;;;;;16.35;37.87;101789.53;5067701;28;20135;-83
2022/08/29 07:04:23;;;;;;;5.78;2.20;;;;;;;16.46;37.86;101792.13;5063514;28;20067;-82
2022/08/29 07:06:53;;;;;;;5.57;2.05;;;;;;;16.56;38.16;101779.16;5065254;28;20052;-82
2022/08/29 07:09:21;;;;;;;5.90;1.70;;;;;;;16.69;38.01;101776.03;5062099;28;20098;-82
2022/08/29 07:11:49;;;;;;;3.90;1.85;;;;;;;16.85;38.54;101779.03;5069160;28;20069;-80
2022/08/29 07:14:17;;;;;;;4.00;1.83;;;;;;;17.05;38.61;101784.50;5066273;28;20131;-80
2022/08/29 07:16:45;;;;;;;6.60;1.92;;;;;;;17.27;38.48;101786.81;5070781;28;20039;-79
2022/08/29 07:19:13;;;;;;;4.70;1.92;;;;;;;17.54;38.29;101783.13;5067792;28;20071;-80
2022/08/29 07:21:43;;;;;;;4.10;1.88;;;;;;;17.86;37.85;101790.91;5065840;28;20039;-82
2022/08/29 07:24:11;;;;;;;3.80;1.73;;;;;;;18.13;37.99;101783.34;5068773;28;20121;-82
2022/08/29 07:26:42;;;;;;;4.10;1.75;;;;;;;18.49;37.30;101795.22;5078126;28;20040;-81
2022/08/29 07:29:12;;;;;;;4.25;1.90;;;;;;;18.80;36.86;101792.78;5080545;28;20044;-81
2022/08/29 07:31:41;;;;;;;5.03;2.15;;;;;;;19.07;36.46;101790.84;5069244;28;20044;-82
2022/08/29 07:34:09;;;;;;;4.82;1.95;;;;;;;19.31;35.66;101802.06;5065046;28;20060;-84
2022/08/29 07:36:37;;;;;;;4.72;1.92;;;;;;;19.54;35.08;101802.31;5066031;28;20040;-84
2022/08/29 07:39:31;;;;;;;5.32;1.80;;;;;;;19.73;34.76;101801.09;5071115;28;20055;-84
2022/08/29 07:42:00;;;;;;;4.68;1.83;;;;;;;19.90;34.84;101792.59;5070296;28;20136;-84
2022/08/29 07:44:28;;;;;;;5.53;2.00;;;;;;;20.07;34.61;101778.75;5070137;28;20044;-84
2022/08/29 07:47:01;;;;;;;4.25;1.90;;;;;;;20.21;34.40;101778.91;5081854;28;20403;-85
2022/08/29 07:49:31;;;;;;;7.07;2.00;;;;;;;20.35;33.73;101785.69;5071471;28;20127;-82
2022/08/29 07:52:08;;;;;;;4.55;1.90;;;;;;;20.47;33.47;101781.47;5071144;28;20037;-83
2022/08/29 07:54:37;;;;;;;7.18;2.03;;;;;;;20.62;33.51;101778.84;5072317;28;20113;-86
2022/08/29 07:57:05;;;;;;;5.28;2.30;;;;;;;20.72;33.00;101785.09;5070573;28;20407;-84
2022/08/29 07:59:33;;;;;;;6.55;2.10;;;;;;;20.83;32.79;101786.63;5070557;28;20500;-84
2022/08/29 08:02:02;;;;;;;4.97;1.75;;;;;;;20.94;33.25;101798.25;5067914;28;20063;-86
2022/08/29 08:04:30;;;;;;;3.28;1.70;;;;;;;21.06;32.50;101788.44;5070535;28;20037;-86
2022/08/29 08:06:58;;;;;;;4.20;1.80;;;;;;;21.20;32.50;101792.34;5064167;28;20041;-85
2022/08/29 08:09:27;;;;;;;4.43;1.83;;;;;;;21.33;32.06;101798.25;5071160;28;20044;-86
2022/08/29 08:11:56;;;;;;;4.70;1.65;;;;;;;21.47;31.91;101800.25;5071370;28;20049;-86
2022/08/29 08:14:25;;;;;;;5.45;2.00;;;;;;;21.57;31.54;101785.22;5070399;28;20041;-88
2022/08/29 08:17:02;;;;;;;5.72;1.55;;;;;;;21.69;31.33;101795.75;5072526;28;20045;-85
2022/08/29 08:19:30;;;;;;;4.38;1.90;;;;;;;21.79;31.13;101796.38;5077166;28;20051;-87
2022/08/29 08:21:58;;;;;;;5.57;1.88;;;;;;;21.87;31.22;101793.50;5058018;28;20059;-84
2022/08/29 08:24:26;;;;;;;4.22;1.60;;;;;;;21.97;31.20;101796.09;5063171;28;20483;-86
2022/08/29 08:26:56;;;;;;;3.95;1.90;;;;;;;22.07;30.53;101791.13;5082128;28;20040;-86
2022/08/29 08:29:25;;;;;;;4.50;1.92;;;;;;;22.12;30.33;101793.34;5084032;28;20483;-86
2022/08/29 08:31:54;;;;;;;3.58;1.90;;;;;;;22.20;30.47;101790.47;5067979;28;20836;-86
2022/08/29 08:34:22;;;;;;;3.38;1.63;;;;;;;22.30;30.20;101795.78;5075184;28;20037;-86
2022/08/29 08:36:50;;;;;;;4.07;1.70;;;;;;;22.39;29.90;101798.31;5075825;28;20135;-86
2022/08/29 08:39:19;;;;;;;3.58;1.65;;;;;;;22.45;29.93;101794.75;5073754;28;20063;-86
2022/08/29 08:41:57;;;;;;;3.55;1.58;;;;;;;22.53;29.14;101791.91;5088850;28;20538;-86
2022/08/29 08:44:57;;;;;;;4.10;1.60;;;;;;;22.53;28.54;101797.50;5073098;28;20048;-87
2022/08/29 08:47:28;;;;;;;4.78;1.80;;;;;;;22.61;29.57;101793.75;5064114;28;20830;-86
2022/08/29 08:50:03;;;;;;;6.10;1.90;;;;;;;22.66;28.94;101802.44;5078830;28;20044;-87
2022/08/29 08:52:40;;;;;;;3.70;1.63;;;;;;;22.70;28.89;101798.19;5082107;28;20051;-86
2022/08/29 08:55:18;;;;;;;3.40;1.65;;;;;;;22.76;28.71;101790.97;5066779;28;20687;-86
2022/08/29 08:57:54;;;;;;;4.45;1.77;;;;;;;22.78;28.01;101791.63;5068583;28;20048;-86
2022/08/29 09:00:24;;;;;;;3.30;1.38;;;;;;;22.83;28.51;101791.94;5079300;28;20083;-86
2022/08/29 09:03:04;;;;;;;3.53;1.70;;;;;;;22.84;26.95;101794.53;5094709;28;20047;-86
2022/08/29 09:05:42;;;;;;;3.63;1.73;;;;;;;22.90;26.95;101781.75;5081825;28;20045;-86
2022/08/29 09:08:24;;;;;;;5.32;1.58;;;;;;;22.94;27.82;101783.06;5061569;28;20055;-86
2022/08/29 09:10:57;;;;;;;4.55;1.73;;;;;;;22.96;27.82;101792.13;5087840;28;20051;-85
2022/08/29 09:13:46;;;;;;;3.35;1.80;;;;;;;22.95;27.03;101790.38;5083881;28;20044;-85
2022/08/29 09:16:23;;;;;;;4.85;1.85;;;;;;;23.00;27.11;101790.69;5074187;28;20048;-86
2022/08/29 09:18:52;;;;;;;4.75;1.70;;;;;;;23.00;27.88;101793.47;5069385;28;20044;-85
2022/08/29 09:21:23;;;;;;;4.18;1.90;;;;;;;23.05;27.73;101790.97;5073372;28;20048;-86
2022/08/29 09:24:12;;;;;;;4.03;1.85;;;;;;;23.06;27.58;101787.13;5074578;28;20148;-86
2022/08/29 09:26:40;;;;;;;3.78;1.98;;;;;;;23.07;27.66;101808.41;5076287;28;20114;-86
2022/08/29 09:29:08;;;;;;;5.78;1.90;;;;;;;23.08;27.18;101796.16;5075755;28;20045;-86
2022/08/29 09:31:39;;;;;;;4.63;2.08;;;;;;;23.09;27.09;101805.38;5075817;28;20048;-86
2022/08/29 09:34:11;;;;;;;4.43;2.10;;;;;;;23.11;27.27;101794.91;5079157;28;20128;-85
2022/08/29 09:36:43;;;;;;;5.03;2.08;;;;;;;23.11;27.25;101784.59;5076654;28;20033;-86
2022/08/29 09:39:32;;;;;;;4.55;2.05;;;;;;;23.14;26.93;101789.81;5092865;28;20048;-85
2022/08/29 09:42:16;;;;;;;3.53;1.75;;;;;;;23.18;26.44;101795.88;5079943;28;20044;-86
2022/08/29 09:44:53;;;;;;;3.67;1.70;;;;;;;23.24;26.46;101796.00;5077990;28;20044;-86
2022/08/29 09:47:26;;;;;;;5.03;1.92;;;;;;;23.28;26.55;101793.66;5082783;28;20051;-85
2022/08/29 09:50:08;;;;;;;4.72;2.20;;;;;;;23.29;25.85;101795.38;5068612;28;20310;-86
2022/08/29 09:52:37;;;;;;;;;;;;;;;22.97;26.57;101800.31;5086659;28;20047;-85
2022/08/29 09:55:22;;;;;;;3.55;1.80;;;;;;;23.28;26.48;101788.94;5072511;28;19924;-85
2022/08/29 09:57:53;;;;;;;4.97;1.65;;;;;;;23.32;26.91;101787.50;5070895;28;20041;-86
2022/08/29 10:00:27;;;;;;;5.10;2.10;;;;;;;23.35;26.35;101789.88;5066398;28;20033;-84
2022/08/29 10:03:00;;;;;;;3.63;1.80;;;;;;;23.39;26.32;101779.19;5072711;28;20040;-86
2022/08/29 10:05:40;;;;;;;5.65;2.03;;;;;;;23.41;26.00;101779.88;5084159;28;20486;-84
2022/08/29 10:08:25;;;;;;;4.70;2.08;;;;;;;23.40;25.34;101778.13;5060263;28;20039;-84
2022/08/29 10:10:57;;;;;;;4.75;2.08;;;;;;;23.45;26.44;101771.94;5077196;28;20558;-84
2022/08/29 10:13:34;;;;;;;4.82;2.00;;;;;;;23.46;26.14;101779.25;5082278;28;20033;-83
2022/08/29 10:16:13;;;;;;;5.07;2.30;;;;;;;23.45;24.92;101778.38;5091212;28;20041;-85
2022/08/29 10:18:48;;;;;;;6.03;2.10;;;;;;;23.48;25.60;101774.34;5072805;28;20037;-85
2022/08/29 10:21:25;;;;;;;4.13;1.60;;;;;;;23.50;25.98;101772.19;5072133;28;20044;-84
2022/08/29 10:24:04;;;;;;;3.63;1.80;;;;;;;23.50;25.60;101775.00;5075684;28;20051;-85
2022/08/29 10:26:40;;;;;;;4.30;2.13;;;;;;;23.51;25.67;101772.00;5082756;28;20395;-85
2022/08/29 10:29:18;;;;;;;3.33;1.90;;;;;;;23.55;25.58;101772.50;5075357;28;20135;-84
2022/08/29 10:31:56;;;;;;;4.22;1.77;;;;;;;23.61;25.55;101766.09;5073223;28;20036;-84
2022/08/29 10:34:44;;;;;;;5.88;2.00;;;;;;;23.61;25.44;101774.47;5072576;28;20056;-84
2022/08/29 10:37:19;;;;;;;4.25;1.80;;;;;;;23.64;25.16;101772.16;5073313;28;20367;-84
2022/08/29 10:39:57;;;;;;;3.50;1.88;;;;;;;23.67;25.54;101763.38;5071383;28;20045;-83
2022/08/29 10:42:26;;;;;;;3.63;1.70;;;;;;;23.68;25.82;101755.84;5082970;28;20135;-84
2022/08/29 10:45:05;;;;;;;4.60;1.80;;;;;;;23.74;25.07;101755.06;5071814;28;20730;-84
2022/08/29 10:47:38;;;;;;;4.85;2.00;;;;;;;23.72;25.51;101752.47;5072351;28;20049;-84
2022/08/29 10:50:31;;;;;;;3.47;1.70;;;;;;;23.74;24.80;101752.28;5084577;28;20540;-84
2022/08/29 10:53:19;;;;;;;4.65;2.03;;;;;;;23.77;25.34;101751.88;5085331;28;20037;-84
2022/08/29 10:55:54;;;;;;;4.57;2.17;;;;;;;23.81;25.09;101753.25;5071765;28;20053;-84
2022/08/29 10:58:43;;;;;;;4.60;1.90;;;;;;;23.87;25.02;101748.75;5078761;28;20033;-84
2022/08/29 11:01:17;;;;;;;3.65;1.75;;;;;;;23.91;25.34;101744.50;5090383;28;21154;-85
2022/08/29 11:03:58;;;;;;;3.42;1.80;;;;;;;23.97;25.28;101738.09;5081249;28;20507;-83
2022/08/29 11:06:34;;;;;;;4.68;2.50;;;;;;;24.01;24.62;101743.09;5083284;28;20123;-84
2022/08/29 11:09:10;;;;;;;3.00;1.58;;;;;;;24.08;24.97;101727.22;5021670;28;20403;-84
2022/08/29 11:11:44;;;;;;;4.72;1.73;;;;;;;24.13;24.96;101724.69;5071871;28;20048;-84
2022/08/29 11:14:24;;;;;;;3.67;1.60;;;;;;;24.19;24.93;101731.41;5071660;28;20048;-85
2022/08/29 11:16:56;;;;;;;3.58;1.60;;;;;;;24.24;24.95;101728.00;5074301;28;20426;-85
2022/08/29 11:19:35;;;;;;;5.43;1.70;;;;;;;24.30;25.26;101718.78;5073268;28;20120;-83
2022/08/29 11:22:12;;;;;;;3.55;1.75;;;;;;;24.38;25.06;101719.53;5073985;28;20036;-85
2022/08/29 11:24:43;;;;;;;4.97;1.88;;;;;;;24.44;25.06;101717.84;5083032;28;20128;-84
2022/08/29 11:27:26;;;;;;;3.40;1.70;;;;;;;24.54;24.18;101700.69;5072615;28;20040;-84
2022/08/29 11:30:02;;;;;;;3.50;1.58;;;;;;;24.61;24.85;101705.25;5072261;28;20123;-85
2022/08/29 11:32:39;;;;;;;3.85;2.08;;;;;;;24.65;23.61;101714.09;5072911;28;20560;-86
2022/08/29 11:35:16;;;;;;;5.53;2.00;;;;;;;24.69;23.25;101704.19;5072692;28;20059;-84
2022/08/29 11:38:31;;;;;;;4.28;1.98;;;;;;;24.68;23.92;101713.66;5071328;28;20585;-86
2022/08/29 11:41:21;;;;;;;3.53;1.70;;;;;;;24.75;23.56;101693.03;5061007;28;20384;-85
2022/08/29 11:43:58;;;;;;;4.05;1.98;;;;;;;24.71;23.54;101697.34;5090932;28;20048;-86
2022/08/29 11:46:46;;;;;;;4.00;1.83;;;;;;;24.70;23.38;101698.41;5078569;28;20036;-86
2022/08/29 11:49:39;;;;;;;3.70;2.10;;;;;;;24.70;23.42;101704.00;5071663;28;20044;-86
2022/08/29 11:52:19;;;;;;;4.10;2.00;;;;;;;24.69;23.48;101696.66;5087993;28;20051;-86
2022/08/29 11:55:25;;;;;;;3.30;1.80;;;;;;;24.59;23.71;101698.97;5076020;28;20052;-86